Time;durP1;ratioP1;P1;durP2;ratioP2;P2;SDS_P1;SDS_P2;PMS_P1;PMS_P2;Temp;Humidity;BMP_temperature;BMP_pressure;BME280_temperature;BME280_humidity;BME280_pressure;Samples;Min_cycle;Max_cycle;Signal;HPM_P1;HPM_P2
2024/03/27 00:00:07;;;;;;;0.40;0.40;;;;;;;7.83;100.00;96467.94;4966507;28;20144;-69
2024/03/27 00:02:34;;;;;;;0.35;0.35;;;;;;;7.88;100.00;96513.72;4992741;28;20069;-69
2024/03/27 00:04:59;;;;;;;0.30;0.30;;;;;;;7.75;100.00;96480.00;4983451;28;20058;-70
2024/03/27 00:07:25;;;;;;;0.40;0.40;;;;;;;7.54;100.00;96472.13;4982520;28;20152;-70
2024/03/27 00:09:51;;;;;;;0.30;0.30;;;;;;;7.63;100.00;96478.19;4982626;28;20133;-72
2024/03/27 00:12:17;;;;;;;0.38;0.38;;;;;;;7.64;100.00;96479.81;4982960;28;20532;-72
2024/03/27 00:14:43;;;;;;;0.30;0.30;;;;;;;7.58;100.00;96472.22;4966900;28;20046;-72
2024/03/27 00:17:09;;;;;;;0.40;0.40;;;;;;;7.46;100.00;96461.34;4982579;28;20111;-72
2024/03/27 00:19:35;;;;;;;0.30;0.30;;;;;;;7.47;100.00;96469.25;4966757;28;20054;-72
2024/03/27 00:22:00;;;;;;;0.30;0.30;;;;;;;7.43;100.00;96468.38;4982478;28;20410;-72
2024/03/27 00:24:29;;;;;;;0.30;0.30;;;;;;;7.11;100.00;96420.09;4967087;28;20061;-72
2024/03/27 00:26:55;;;;;;;0.30;0.30;;;;;;;7.20;100.00;96425.41;4966744;28;20948;-73
2024/03/27 00:29:20;;;;;;;0.30;0.30;;;;;;;7.37;100.00;96480.84;4982827;28;20062;-72
2024/03/27 00:31:46;;;;;;;0.40;0.40;;;;;;;7.50;100.00;96487.81;4982886;28;20089;-70
2024/03/27 00:34:12;;;;;;;0.40;0.40;;;;;;;7.46;100.00;96467.63;4983212;28;20058;-71
2024/03/27 00:36:37;;;;;;;0.40;0.40;;;;;;;7.76;100.00;96475.28;4982354;28;20058;-70
2024/03/27 00:39:03;;;;;;;0.40;0.40;;;;;;;7.74;100.00;96473.69;4982458;28;20054;-70
2024/03/27 00:41:46;;;;;;;0.40;0.40;;;;;;;7.63;100.00;96467.19;4818966;28;10001034;-70
2024/03/27 00:44:12;;;;;;;0.38;0.38;;;;;;;7.82;100.00;96457.28;2552433;29;10002037;-70
2024/03/27 00:46:37;;;;;;;0.30;0.30;;;;;;;6.41;100.00;96201.31;4994117;28;20054;-71
2024/03/27 00:49:05;;;;;;;0.40;0.40;;;;;;;8.20;100.00;96454.41;4982035;28;20058;-70
2024/03/27 00:51:31;;;;;;;0.40;0.40;;;;;;;8.23;100.00;96445.41;4982041;28;20050;-70
2024/03/27 00:53:57;;;;;;;0.30;0.30;;;;;;;8.43;100.00;96444.97;4966159;28;20054;-71
2024/03/27 00:56:23;;;;;;;0.40;0.40;;;;;;;8.26;100.00;96406.06;4965575;28;20506;-71
2024/03/27 00:58:49;;;;;;;0.40;0.40;;;;;;;8.66;100.00;96453.19;4981881;28;20054;-69
2024/03/27 01:01:15;;;;;;;0.40;0.40;;;;;;;8.79;100.00;96457.31;4982467;28;20089;-69
2024/03/27 01:03:40;;;;;;;0.40;0.40;;;;;;;8.18;100.00;96355.47;4982933;28;20579;-69
2024/03/27 01:06:06;;;;;;;0.40;0.40;;;;;;;8.86;100.00;96458.22;4982937;28;20513;-69
2024/03/27 01:08:32;;;;;;;0.50;0.50;;;;;;;8.91;100.00;96454.34;4998665;28;20054;-69
2024/03/27 01:10:58;;;;;;;0.40;0.40;;;;;;;8.68;100.00;96420.47;4966154;28;20141;-68
2024/03/27 01:13:23;;;;;;;0.40;0.40;;;;;;;9.01;100.00;96456.44;4981552;28;20510;-70
2024/03/27 01:15:50;;;;;;;0.40;0.40;;;;;;;9.00;100.00;96457.63;4965380;28;20552;-68
2024/03/27 01:18:16;;;;;;;0.45;0.45;;;;;;;8.95;100.00;96455.16;4981259;28;20066;-68
2024/03/27 01:20:43;;;;;;;0.40;0.40;;;;;;;8.99;100.00;96456.81;4998102;28;20062;-68
2024/03/27 01:23:09;;;;;;;0.40;0.40;;;;;;;9.07;100.00;96463.25;4965755;28;20065;-69
2024/03/27 01:25:36;;;;;;;0.40;0.40;;;;;;;8.45;100.00;96392.16;4981337;28;20054;-68
2024/03/27 01:28:03;;;;;;;0.40;0.40;;;;;;;8.40;100.00;96455.94;4981548;28;20475;-69
2024/03/27 01:30:29;;;;;;;0.40;0.40;;;;;;;8.18;100.00;96449.25;4981308;28;20050;-70
2024/03/27 01:32:57;;;;;;;0.40;0.40;;;;;;;8.00;100.00;96469.44;4988950;28;20111;-69
2024/03/27 01:35:23;;;;;;;0.47;0.47;;;;;;;8.04;100.00;96450.97;4982058;28;20050;-69
2024/03/27 01:37:49;;;;;;;0.40;0.40;;;;;;;7.98;100.00;96445.00;4981450;28;20050;-68
2024/03/27 01:40:15;;;;;;;0.35;0.35;;;;;;;8.01;100.00;96440.69;4965247;28;20529;-69
2024/03/27 01:42:40;;;;;;;0.40;0.40;;;;;;;7.85;100.00;96445.53;4981048;28;20730;-68
2024/03/27 01:45:11;;;;;;;0.40;0.40;;;;;;;7.91;100.00;96441.28;4981774;28;20046;-69
2024/03/27 01:47:37;;;;;;;0.40;0.40;;;;;;;7.73;100.00;96439.03;4981239;28;20069;-69
2024/03/27 01:50:04;;;;;;;0.40;0.40;;;;;;;7.77;100.00;96435.53;4981704;28;20433;-68
2024/03/27 01:52:31;;;;;;;0.40;0.40;;;;;;;8.00;100.00;96436.34;4981413;28;20113;-69
2024/03/27 01:54:57;;;;;;;0.40;0.40;;;;;;;7.63;100.00;96378.97;4965924;28;20051;-70
2024/03/27 01:57:23;;;;;;;0.40;0.40;;;;;;;7.84;100.00;96425.41;4980764;28;20568;-69
2024/03/27 01:59:49;;;;;;;0.40;0.40;;;;;;;7.99;100.00;96430.03;4981195;28;20109;-68
2024/03/27 02:02:15;;;;;;;0.40;0.40;;;;;;;7.89;100.00;96427.09;4981446;28;20129;-68
2024/03/27 02:04:41;;;;;;;0.40;0.40;;;;;;;7.68;100.00;96424.75;4981465;28;20058;-68
2024/03/27 02:07:06;;;;;;;0.40;0.40;;;;;;;7.68;100.00;96428.28;4981162;28;20100;-69
2024/03/27 02:09:32;;;;;;;0.32;0.32;;;;;;;7.81;100.00;96434.44;4980944;28;20133;-69
2024/03/27 02:11:58;;;;;;;0.40;0.40;;;;;;;7.85;100.00;96420.72;4980923;28;20050;-69
2024/03/27 02:14:24;;;;;;;0.40;0.40;;;;;;;7.68;100.00;96428.28;4981483;28;20193;-69
2024/03/27 02:16:50;;;;;;;0.40;0.40;;;;;;;7.18;100.00;96356.91;4981540;28;20582;-68
2024/03/27 02:19:15;;;;;;;0.38;0.38;;;;;;;7.60;100.00;96429.31;4981556;28;20500;-69
2024/03/27 02:21:41;;;;;;;0.40;0.40;;;;;;;7.91;100.00;96433.81;4981321;28;20069;-69
2024/03/27 02:24:20;;;;;;;0.40;0.40;;;;;;;7.89;100.00;96435.38;4981686;28;20129;-69
2024/03/27 02:26:47;;;;;;;0.40;0.40;;;;;;;7.95;100.00;96433.88;4965028;28;20070;-70
2024/03/27 02:29:12;;;;;;;0.40;0.40;;;;;;;7.95;100.00;96431.13;4981489;28;20054;-70
2024/03/27 02:31:38;;;;;;;0.40;0.40;;;;;;;7.94;100.00;96432.28;4981406;28;20609;-68
2024/03/27 02:34:04;;;;;;;0.40;0.40;;;;;;;8.09;100.00;96434.13;4981869;28;20062;-70
2024/03/27 02:36:30;;;;;;;0.40;0.40;;;;;;;7.93;100.00;96364.53;4981300;28;20062;-67
2024/03/27 02:38:55;;;;;;;0.40;0.40;;;;;;;8.48;100.00;96439.13;4977820;28;20453;-68
2024/03/27 02:41:21;;;;;;;0.40;0.40;;;;;;;8.35;100.00;96423.13;4964423;28;20050;-70
2024/03/27 02:43:47;;;;;;;0.40;0.40;;;;;;;7.84;100.00;96333.66;4982152;28;20054;-69
2024/03/27 02:46:12;;;;;;;0.40;0.40;;;;;;;8.51;100.00;96451.38;4968451;28;20062;-69
2024/03/27 02:48:38;;;;;;;0.40;0.40;;;;;;;8.38;100.00;96420.44;4984596;28;20065;-69
2024/03/27 02:51:04;;;;;;;0.40;0.40;;;;;;;8.68;100.00;96423.22;4984539;28;20481;-69
2024/03/27 02:53:30;;;;;;;0.43;0.43;;;;;;;8.85;100.00;96439.28;4984325;28;20069;-68
2024/03/27 02:55:56;;;;;;;0.50;0.50;;;;;;;9.07;100.00;96419.03;4984735;28;20054;-68
2024/03/27 02:58:22;;;;;;;0.40;0.40;;;;;;;9.04;100.00;96420.56;4983681;28;20058;-68
2024/03/27 03:00:49;;;;;;;0.40;0.40;;;;;;;8.86;100.00;96380.09;4980790;28;20472;-68
2024/03/27 03:03:15;;;;;;;0.50;0.50;;;;;;;9.16;100.00;96422.31;4966651;28;20058;-69
2024/03/27 03:05:42;;;;;;;0.50;0.50;;;;;;;8.96;100.00;96379.44;4967707;28;20057;-68
2024/03/27 03:08:08;;;;;;;0.40;0.40;;;;;;;9.04;100.00;96381.91;4983785;28;20054;-69
2024/03/27 03:10:34;;;;;;;0.40;0.40;;;;;;;9.25;100.00;96416.50;4983653;28;20054;-68
2024/03/27 03:13:00;;;;;;;0.50;0.50;;;;;;;9.00;100.00;96385.78;4983727;28;20528;-69
2024/03/27 03:15:26;;;;;;;0.40;0.40;;;;;;;9.23;100.00;96405.81;4968164;28;20319;-69
2024/03/27 03:17:52;;;;;;;0.40;0.40;;;;;;;9.23;100.00;96406.59;4967708;28;20058;-68
2024/03/27 03:20:18;;;;;;;0.40;0.40;;;;;;;8.62;100.00;96314.31;4984342;28;20061;-68
2024/03/27 03:22:44;;;;;;;0.40;0.40;;;;;;;9.11;100.00;96404.09;4985011;28;20072;-67
2024/03/27 03:25:10;;;;;;;0.40;0.40;;;;;;;9.08;100.00;96409.56;4984212;28;20536;-68
2024/03/27 03:27:36;;;;;;;0.40;0.40;;;;;;;9.08;100.00;96404.84;4964187;28;20058;-68
2024/03/27 03:30:05;;;;;;;0.47;0.47;;;;;;;9.04;100.00;96397.69;4948112;28;20062;-68
2024/03/27 03:32:31;;;;;;;0.40;0.40;;;;;;;9.10;100.00;96399.72;4959964;28;20062;-67
2024/03/27 03:34:57;;;;;;;0.40;0.40;;;;;;;9.06;100.00;96395.34;4967589;28;20137;-67
2024/03/27 03:37:23;;;;;;;0.40;0.40;;;;;;;9.05;100.00;96399.28;4983112;28;20572;-68
2024/03/27 03:39:49;;;;;;;0.40;0.40;;;;;;;8.87;100.00;96376.16;4983079;28;20054;-68
2024/03/27 03:42:14;;;;;;;0.43;0.43;;;;;;;8.95;100.00;96394.41;4999697;28;20058;-68
2024/03/27 03:44:40;;;;;;;0.40;0.40;;;;;;;8.85;100.00;96400.59;4983307;28;20058;-68
2024/03/27 03:47:06;;;;;;;0.40;0.40;;;;;;;8.52;100.00;96342.59;4983244;28;20325;-67
2024/03/27 03:49:32;;;;;;;0.40;0.40;;;;;;;8.73;100.00;96384.25;4967567;28;20077;-68
2024/03/27 03:51:57;;;;;;;0.40;0.40;;;;;;;8.49;100.00;96337.78;4982937;28;20104;-68
2024/03/27 03:54:23;;;;;;;0.40;0.40;;;;;;;8.83;100.00;96402.94;4999384;28;20093;-67
2024/03/27 03:56:49;;;;;;;0.40;0.40;;;;;;;8.51;100.00;96360.28;4982533;28;20481;-68
2024/03/27 03:59:15;;;;;;;0.43;0.43;;;;;;;8.73;100.00;96425.66;4983548;28;20058;-69
2024/03/27 04:01:41;;;;;;;0.50;0.50;;;;;;;8.75;100.00;96412.28;4983764;28;20057;-68
2024/03/27 04:04:07;;;;;;;0.40;0.40;;;;;;;8.85;100.00;96400.59;4984042;28;20551;-68
2024/03/27 04:06:33;;;;;;;0.40;0.40;;;;;;;8.85;100.00;96395.09;4982968;28;20061;-68
2024/03/27 04:08:59;;;;;;;0.40;0.40;;;;;;;8.56;100.00;96348.94;4983222;28;20054;-66
2024/03/27 04:11:24;;;;;;;0.47;0.47;;;;;;;8.93;100.00;96392.03;4982851;28;20145;-68
2024/03/27 04:13:51;;;;;;;0.40;0.40;;;;;;;9.00;100.00;96391.31;4982774;28;20062;-68
2024/03/27 04:16:17;;;;;;;0.40;0.40;;;;;;;8.95;100.00;96383.34;4982332;28;20539;-67
2024/03/27 04:18:43;;;;;;;0.40;0.40;;;;;;;8.68;100.00;96340.41;4982314;28;20054;-69
2024/03/27 04:21:09;;;;;;;0.40;0.40;;;;;;;8.89;100.00;96384.88;4982765;28;20058;-68
2024/03/27 04:23:34;;;;;;;0.43;0.43;;;;;;;8.99;100.00;96401.56;4966938;28;20093;-67
2024/03/27 04:26:00;;;;;;;0.40;0.40;;;;;;;8.98;100.00;96399.19;4982280;28;20754;-68
2024/03/27 04:28:26;;;;;;;0.40;0.40;;;;;;;8.57;100.00;96328.44;4966524;28;20050;-68
2024/03/27 04:30:54;;;;;;;0.40;0.40;;;;;;;9.01;100.00;96390.13;4982401;28;20501;-68
2024/03/27 04:33:20;;;;;;;0.50;0.50;;;;;;;9.07;100.00;96408.78;4982731;28;20069;-68
2024/03/27 04:35:47;;;;;;;0.50;0.50;;;;;;;9.03;100.00;96412.66;4982894;28;20058;-69
2024/03/27 04:38:13;;;;;;;0.40;0.40;;;;;;;9.11;100.00;96414.34;4982855;28;20058;-68
2024/03/27 04:40:39;;;;;;;0.43;0.43;;;;;;;8.81;100.00;96385.94;4982503;28;20074;-70
2024/03/27 04:43:05;;;;;;;0.40;0.40;;;;;;;9.16;100.00;96419.53;4966591;28;20058;-68
2024/03/27 04:45:31;;;;;;;0.40;0.40;;;;;;;9.16;100.00;96427.84;4982379;28;20434;-68
2024/03/27 04:47:57;;;;;;;0.50;0.50;;;;;;;7.92;100.00;96219.56;4966185;28;20145;-68
2024/03/27 04:50:23;;;;;;;0.50;0.50;;;;;;;9.26;100.00;96421.66;4982054;28;20046;-68
2024/03/27 04:52:49;;;;;;;0.40;0.40;;;;;;;9.08;100.00;96398.53;4965346;28;20469;-68
2024/03/27 04:55:16;;;;;;;0.45;0.45;;;;;;;9.11;100.00;96397.75;4965762;28;20069;-68
2024/03/27 04:57:42;;;;;;;0.50;0.50;;;;;;;9.49;100.00;96430.59;4965486;28;20062;-67
2024/03/27 05:00:12;;;;;;;0.50;0.50;;;;;;;9.60;99.64;96422.41;4981917;28;20061;-68
2024/03/27 05:02:38;;;;;;;0.40;0.40;;;;;;;9.52;99.12;96416.00;4981843;28;20054;-67
2024/03/27 05:05:05;;;;;;;0.40;0.40;;;;;;;9.57;99.36;96421.19;4965459;28;20054;-68
2024/03/27 05:07:32;;;;;;;0.45;0.45;;;;;;;9.35;98.82;96386.22;4981379;28;20061;-67
2024/03/27 05:09:58;;;;;;;0.40;0.40;;;;;;;9.23;99.34;96345.03;4981973;28;20447;-68
2024/03/27 05:12:24;;;;;;;0.43;0.43;;;;;;;9.74;98.11;96409.53;4981964;28;20058;-68
2024/03/27 05:14:50;;;;;;;0.50;0.50;;;;;;;9.98;97.06;96430.28;4965877;28;20058;-69
2024/03/27 05:17:16;;;;;;;0.50;0.50;;;;;;;10.00;94.82;96428.75;4965376;28;20063;-66
2024/03/27 05:19:43;;;;;;;0.43;0.43;;;;;;;9.66;95.03;96369.16;4966024;28;20058;-67
2024/03/27 05:22:15;;;;;;;0.50;0.50;;;;;;;10.01;94.26;96435.06;4964843;28;20062;-67
2024/03/27 05:24:47;;;;;;;0.50;0.50;;;;;;;10.14;94.93;96439.16;4997807;28;20421;-67
2024/03/27 05:27:13;;;;;;;0.50;0.50;;;;;;;9.80;92.85;96376.78;4965586;28;20057;-67
2024/03/27 05:29:39;;;;;;;0.50;0.50;;;;;;;10.34;93.48;96438.56;4966147;28;20046;-67
2024/03/27 05:32:05;;;;;;;0.50;0.50;;;;;;;10.42;92.65;96429.13;4981319;28;20050;-67
2024/03/27 05:34:31;;;;;;;0.50;0.50;;;;;;;10.05;91.35;96353.66;4981005;28;20093;-67
2024/03/27 05:36:57;;;;;;;0.45;0.45;;;;;;;10.61;89.66;96442.72;4964843;28;20054;-67
2024/03/27 05:39:23;;;;;;;0.50;0.50;;;;;;;10.07;87.17;96340.28;4997835;28;20051;-68
2024/03/27 05:41:49;;;;;;;0.50;0.50;;;;;;;10.76;87.67;96449.16;4981144;28;20050;-68
2024/03/27 05:44:15;;;;;;;0.50;0.50;;;;;;;10.64;88.17;96435.59;4981442;28;20065;-68
2024/03/27 05:46:41;;;;;;;0.50;0.50;;;;;;;9.97;88.43;96357.59;4981360;28;20061;-68
2024/03/27 05:49:08;;;;;;;0.50;0.50;;;;;;;10.18;88.36;96406.81;4981202;28;20548;-68
2024/03/27 05:51:36;;;;;;;0.50;0.50;;;;;;;10.15;89.18;96419.41;4981010;28;20058;-68
2024/03/27 05:54:02;;;;;;;0.50;0.50;;;;;;;10.33;90.21;96483.22;4981512;28;20116;-69
2024/03/27 05:56:29;;;;;;;0.50;0.50;;;;;;;10.38;90.06;96456.00;4980906;28;20055;-69
2024/03/27 05:58:55;;;;;;;0.50;0.50;;;;;;;10.46;90.08;96452.09;4981072;28;20061;-69
2024/03/27 06:01:21;;;;;;;0.50;0.50;;;;;;;10.27;91.25;96457.88;4981283;28;20051;-70
2024/03/27 06:03:48;;;;;;;0.50;0.50;;;;;;;10.21;91.61;96458.63;4997395;28;20050;-70
2024/03/27 06:06:15;;;;;;;0.40;0.40;;;;;;;10.27;91.61;96460.66;4980824;28;20055;-70
2024/03/27 06:08:41;;;;;;;0.50;0.50;;;;;;;9.90;91.00;96390.72;4980879;28;20065;-71
2024/03/27 06:11:08;;;;;;;0.50;0.50;;;;;;;9.78;91.38;96366.13;4964992;28;20062;-72
2024/03/27 06:13:34;;;;;;;0.40;0.40;;;;;;;10.23;90.78;96448.75;4981588;28;20381;-71
2024/03/27 06:16:00;;;;;;;0.50;0.50;;;;;;;10.31;90.38;96455.13;4981121;28;20066;-71
2024/03/27 06:18:25;;;;;;;0.50;0.50;;;;;;;10.27;90.76;96438.53;4982760;28;20058;-72
2024/03/27 06:20:52;;;;;;;0.50;0.50;;;;;;;9.56;91.38;96347.75;4968683;28;20050;-71
2024/03/27 06:23:18;;;;;;;0.50;0.50;;;;;;;10.06;91.26;96413.38;4968949;28;20054;-72
2024/03/27 06:25:56;;;;;;;0.50;0.50;;;;;;;10.31;92.18;96466.19;4985171;28;20141;-71
2024/03/27 06:28:22;;;;;;;0.50;0.50;;;;;;;10.42;90.70;96476.19;4968625;28;20061;-71
2024/03/27 06:30:48;;;;;;;0.50;0.50;;;;;;;10.37;90.41;96479.31;4984809;28;20050;-71
2024/03/27 06:33:15;;;;;;;0.40;0.40;;;;;;;10.35;90.73;96462.28;4985026;28;20434;-71
2024/03/27 06:35:42;;;;;;;0.50;0.50;;;;;;;9.89;91.05;96422.31;4984788;28;20058;-70
2024/03/27 06:38:08;;;;;;;0.40;0.40;;;;;;;10.26;91.93;96486.72;4981315;28;20121;-74
2024/03/27 06:40:33;;;;;;;0.50;0.50;;;;;;;10.33;91.47;96478.50;4983695;28;20408;-68
2024/03/27 06:42:59;;;;;;;0.50;0.50;;;;;;;9.37;91.26;96334.13;4981655;28;20066;-67
2024/03/27 06:45:25;;;;;;;0.50;0.50;;;;;;;10.13;90.71;96468.81;4964125;28;20746;-61
2024/03/27 06:47:51;;;;;;;0.47;0.47;;;;;;;9.64;90.48;96385.31;4978289;28;20146;-68
2024/03/27 06:50:16;;;;;;;0.45;0.45;;;;;;;10.23;92.70;96468.13;4982987;28;20062;-67
2024/03/27 06:52:42;;;;;;;0.40;0.40;;;;;;;9.28;93.45;96316.25;4966977;28;20054;-69
2024/03/27 06:55:08;;;;;;;0.40;0.40;;;;;;;10.36;93.62;96468.63;4985376;28;20062;-69
2024/03/27 06:57:34;;;;;;;0.50;0.50;;;;;;;10.24;92.55;96432.94;4986107;28;20520;-70
2024/03/27 06:59:59;;;;;;;0.50;0.50;;;;;;;9.86;91.05;96351.19;4981581;28;20129;-76
2024/03/27 07:02:25;;;;;;;0.40;0.40;;;;;;;10.00;90.52;96378.97;4982964;28;20046;-65
2024/03/27 07:04:51;;;;;;;0.40;0.40;;;;;;;9.06;91.50;96232.34;4983422;28;20623;-70
2024/03/27 07:07:17;;;;;;;0.40;0.40;;;;;;;10.65;89.78;96482.31;4982153;28;20121;-65
2024/03/27 07:09:43;;;;;;;0.50;0.50;;;;;;;10.58;90.07;96448.22;4981747;28;20134;-64
2024/03/27 07:12:09;;;;;;;0.50;0.50;;;;;;;10.70;90.34;96472.88;4966461;28;20121;-70
2024/03/27 07:14:35;;;;;;;0.50;0.50;;;;;;;9.79;90.36;96325.41;4967506;28;20109;-63
2024/03/27 07:17:01;;;;;;;0.50;0.50;;;;;;;10.79;90.34;96480.81;4982207;28;20649;-73
2024/03/27 07:19:26;;;;;;;0.50;0.50;;;;;;;10.31;89.96;96385.94;4982995;28;20101;-64
2024/03/27 07:21:52;;;;;;;0.50;0.50;;;;;;;11.09;88.91;96495.28;4999546;28;20563;-65
2024/03/27 07:24:18;;;;;;;0.50;0.50;;;;;;;10.99;86.37;96429.47;4967462;28;20453;-66
2024/03/27 07:26:44;;;;;;;0.50;0.50;;;;;;;11.20;84.56;96473.94;4966637;28;20057;-66
2024/03/27 07:29:10;;;;;;;0.50;0.50;;;;;;;11.36;83.15;96477.19;4982980;28;20046;-66
2024/03/27 07:31:36;;;;;;;0.50;0.50;;;;;;;11.44;83.79;96464.97;4966114;28;20058;-61
2024/03/27 07:34:03;;;;;;;0.50;0.50;;;;;;;10.10;80.65;96256.50;4983270;28;20058;-62
2024/03/27 07:36:29;;;;;;;0.50;0.50;;;;;;;11.77;82.72;96431.41;4982139;28;20050;-64
2024/03/27 07:38:54;;;;;;;0.50;0.50;;;;;;;11.39;80.48;96371.06;4965492;28;20058;-65
2024/03/27 07:41:20;;;;;;;0.50;0.50;;;;;;;12.06;81.10;96460.84;4982557;28;20062;-61
2024/03/27 07:43:47;;;;;;;0.50;0.50;;;;;;;11.76;79.15;96427.06;4966286;28;20631;-61
2024/03/27 07:46:12;;;;;;;0.50;0.50;;;;;;;12.49;79.44;96473.56;4981716;28;20120;-65
2024/03/27 07:48:38;;;;;;;0.50;0.50;;;;;;;12.91;76.21;96462.44;4982589;28;20062;-65
2024/03/27 07:51:04;;;;;;;0.50;0.50;;;;;;;13.01;76.19;96467.19;4982690;28;20372;-61
2024/03/27 07:53:30;;;;;;;0.50;0.50;;;;;;;12.86;76.39;96403.66;4966542;28;20113;-67
2024/03/27 07:55:57;;;;;;;0.60;0.60;;;;;;;13.57;74.37;96442.00;4982379;28;20062;-63
2024/03/27 07:58:23;;;;;;;0.60;0.60;;;;;;;13.62;73.93;96465.84;4982171;28;20058;-66
2024/03/27 08:00:53;;;;;;;0.50;0.50;;;;;;;13.84;72.88;96463.72;4965915;28;20108;-60
2024/03/27 08:03:18;;;;;;;0.57;0.57;;;;;;;13.45;69.42;96456.34;4981622;28;20065;-60
2024/03/27 08:05:45;;;;;;;0.60;0.60;;;;;;;13.56;70.70;96414.59;4980585;28;20148;-71
2024/03/27 08:08:11;;;;;;;0.60;0.60;;;;;;;13.39;68.05;96469.09;4981790;28;20501;-71
2024/03/27 08:10:38;;;;;;;0.50;0.50;;;;;;;13.49;70.59;96459.91;4981988;28;20112;-65
2024/03/27 08:13:04;;;;;;;0.52;0.52;;;;;;;13.65;71.50;96440.78;4981440;28;20603;-62
2024/03/27 08:15:30;;;;;;;0.60;0.60;;;;;;;13.84;70.21;96447.03;4984002;28;20732;-64
2024/03/27 08:17:56;;;;;;;0.60;0.60;;;;;;;13.67;70.37;96452.28;4981072;28;20055;-63
2024/03/27 08:20:22;;;;;;;0.60;0.60;;;;;;;13.73;68.47;96440.72;4982113;28;20507;-62
2024/03/27 08:22:49;;;;;;;0.50;0.50;;;;;;;13.68;71.91;96428.81;4983882;28;20054;-75
2024/03/27 08:25:15;;;;;;;0.60;0.60;;;;;;;13.95;69.75;96447.75;4981737;28;20935;-61
2024/03/27 08:27:41;;;;;;;0.60;0.60;;;;;;;13.99;69.93;96440.19;4995893;28;21231;-62
2024/03/27 08:30:07;;;;;;;0.60;0.60;;;;;;;13.64;70.00;96394.63;4984071;28;20058;-63
2024/03/27 08:32:34;;;;;;;0.70;0.70;;;;;;;14.42;66.32;96461.81;4981214;28;20120;-65
2024/03/27 08:34:59;;;;;;;0.63;0.63;;;;;;;14.64;65.89;96437.34;4979895;28;20054;-62
2024/03/27 08:37:25;;;;;;;0.60;0.60;;;;;;;14.32;65.54;96367.16;4981183;28;20555;-62
2024/03/27 08:39:51;;;;;;;0.60;0.60;;;;;;;14.80;65.87;96454.31;4988638;28;20058;-67
2024/03/27 08:42:17;;;;;;;0.70;0.70;;;;;;;14.50;64.32;96351.06;4968757;28;20171;-63
2024/03/27 08:44:43;;;;;;;0.70;0.70;;;;;;;15.12;62.49;96444.47;4984446;28;20050;-68
2024/03/27 08:47:08;;;;;;;0.60;0.60;;;;;;;15.39;63.24;96441.81;4983453;28;20078;-64
2024/03/27 08:49:35;;;;;;;0.70;0.70;;;;;;;14.00;64.38;96178.03;4978146;28;20089;-63
2024/03/27 08:52:01;;;;;;;0.70;0.70;;;;;;;14.69;63.25;96336.53;4986460;28;20058;-64
2024/03/27 08:54:27;;;;;;;0.70;0.70;;;;;;;15.11;63.19;96375.13;4965529;28;20050;-63
2024/03/27 08:56:53;;;;;;;0.70;0.70;;;;;;;15.33;64.14;96398.78;5013968;28;20115;-66
2024/03/27 08:59:19;;;;;;;0.70;0.70;;;;;;;15.32;63.38;96349.75;4981578;28;20081;-66
2024/03/27 09:01:45;;;;;;;0.70;0.70;;;;;;;16.13;62.80;96424.88;5014865;28;20058;-67
2024/03/27 09:04:11;;;;;;;0.70;0.70;;;;;;;16.09;61.12;96379.41;4981521;28;20593;-65
2024/03/27 09:06:37;;;;;;;0.63;0.63;;;;;;;15.20;60.92;96411.69;4980409;28;20046;-68
2024/03/27 09:09:04;;;;;;;0.60;0.60;;;;;;;13.41;68.33;96436.09;4997390;28;20068;-61
2024/03/27 09:11:30;;;;;;;0.60;0.60;;;;;;;13.85;74.22;96429.91;4996876;28;20583;-60
2024/03/27 09:13:56;;;;;;;0.60;0.60;;;;;;;14.53;70.86;96429.06;4964280;28;20051;-64
2024/03/27 09:16:22;;;;;;;0.70;0.70;;;;;;;14.78;65.82;96457.53;4979698;28;20086;-67
2024/03/27 09:18:48;;;;;;;0.63;0.63;;;;;;;14.06;66.69;96392.78;4994734;28;20058;-63
2024/03/27 09:21:14;;;;;;;0.57;0.57;;;;;;;13.02;70.68;96363.16;4959329;28;20418;-66
2024/03/27 09:23:39;;;;;;;0.60;0.60;;;;;;;13.40;71.12;96381.63;4982682;28;20402;-63
2024/03/27 09:26:05;;;;;;;0.60;0.60;;;;;;;13.12;69.11;96292.00;4963629;28;20046;-65
2024/03/27 09:28:31;;;;;;;0.60;0.60;;;;;;;13.56;69.97;96325.53;4979907;28;20046;-62
2024/03/27 09:31:02;;;;;;;0.60;0.60;;;;;;;14.34;72.48;96409.31;4965420;28;20046;-65
2024/03/27 09:33:28;;;;;;;0.65;0.65;;;;;;;14.23;66.85;96342.53;4978786;28;20054;-65
2024/03/27 09:35:54;;;;;;;0.55;0.55;;;;;;;13.54;71.71;96406.63;4983241;28;20105;-63
2024/03/27 09:38:20;;;;;;;0.60;0.60;;;;;;;13.58;71.85;96351.75;4980164;28;20111;-63
2024/03/27 09:40:48;;;;;;;0.60;0.60;;;;;;;13.40;69.03;96312.09;4980608;28;20046;-69
2024/03/27 09:43:16;;;;;;;0.60;0.60;;;;;;;13.75;67.72;96335.34;4979348;28;20364;-68
2024/03/27 09:45:45;;;;;;;0.60;0.60;;;;;;;14.79;68.72;96408.16;4982884;28;20065;-66
2024/03/27 09:48:13;;;;;;;0.60;0.60;;;;;;;15.19;69.27;96399.72;4979586;28;20073;-66
2024/03/27 09:50:39;;;;;;;0.70;0.70;;;;;;;15.56;64.42;96400.91;4980244;28;20453;-67
2024/03/27 09:53:06;;;;;;;0.60;0.60;;;;;;;15.22;65.86;96400.13;4979547;28;20643;-72
2024/03/27 09:55:33;;;;;;;0.70;0.70;;;;;;;15.02;66.31;96394.34;4991741;28;20119;-68
2024/03/27 09:58:03;;;;;;;0.70;0.70;;;;;;;13.54;69.60;96356.56;4984183;28;20094;-67
2024/03/27 10:00:29;;;;;;;0.60;0.60;;;;;;;14.03;68.67;96268.31;4984788;28;20646;-65
2024/03/27 10:02:59;;;;;;;0.68;0.68;;;;;;;15.16;67.16;96388.59;4984347;28;20206;-65
2024/03/27 10:05:26;;;;;;;0.60;0.60;;;;;;;14.95;66.92;96395.22;4984250;28;20058;-66
2024/03/27 10:07:56;;;;;;;0.70;0.70;;;;;;;15.45;68.83;96398.28;4984363;28;20663;-63
2024/03/27 10:10:22;;;;;;;0.70;0.70;;;;;;;15.52;66.92;96367.50;4984940;28;20697;-70
2024/03/27 10:12:48;;;;;;;0.70;0.70;;;;;;;14.77;63.40;96262.78;4984988;28;20061;-67
2024/03/27 10:15:14;;;;;;;0.60;0.60;;;;;;;14.93;63.48;96307.59;4984383;28;20058;-66
2024/03/27 10:17:40;;;;;;;0.60;0.60;;;;;;;14.99;64.54;96398.78;4983536;28;20609;-65
2024/03/27 10:20:08;;;;;;;0.70;0.70;;;;;;;15.20;67.25;96389.38;4984234;28;20078;-67
2024/03/27 10:22:34;;;;;;;0.70;0.70;;;;;;;14.49;66.23;96148.84;4983907;28;20050;-62
2024/03/27 10:25:05;;;;;;;0.80;0.80;;;;;;;16.27;62.20;96385.53;4967931;28;20062;-62
2024/03/27 10:27:32;;;;;;;0.70;0.70;;;;;;;15.77;64.05;96378.31;4983805;28;20073;-66
2024/03/27 10:29:58;;;;;;;0.80;0.80;;;;;;;15.41;62.87;96382.78;4984224;28;20054;-63
2024/03/27 10:32:25;;;;;;;0.70;0.70;;;;;;;15.50;64.50;96392.22;4983908;28;20173;-63
2024/03/27 10:34:51;;;;;;;0.70;0.70;;;;;;;15.68;65.14;96381.59;4984624;28;20520;-63
2024/03/27 10:37:18;;;;;;;0.70;0.70;;;;;;;16.03;63.97;96358.75;4983294;28;20070;-65
2024/03/27 10:39:51;;;;;;;0.70;0.70;;;;;;;16.21;63.96;96381.66;4968306;28;20050;-67
2024/03/27 10:42:25;;;;;;;0.80;0.80;;;;;;;16.09;61.96;96379.41;4983450;28;20510;-62
2024/03/27 10:44:58;;;;;;;0.63;0.63;;;;;;;16.11;62.52;96371.41;4984047;28;20074;-62
2024/03/27 10:47:31;;;;;;;0.70;0.70;;;;;;;16.64;60.83;96368.56;4967218;28;20112;-67
2024/03/27 10:49:58;;;;;;;0.70;0.70;;;;;;;16.12;62.78;96361.03;4984862;28;20065;-65
2024/03/27 10:52:24;;;;;;;0.70;0.70;;;;;;;15.63;64.13;96362.56;4984061;28;20524;-65
2024/03/27 10:54:51;;;;;;;0.70;0.70;;;;;;;15.80;62.64;96335.56;4984406;28;20061;-62
2024/03/27 10:57:19;;;;;;;0.80;0.80;;;;;;;16.09;65.36;96351.47;4983228;28;20120;-65
2024/03/27 10:59:47;;;;;;;0.68;0.68;;;;;;;16.01;61.57;96313.69;4983572;28;20572;-70
2024/03/27 11:02:14;;;;;;;0.70;0.70;;;;;;;15.73;65.42;96352.44;4983593;28;20061;-70
2024/03/27 11:04:43;;;;;;;0.60;0.60;;;;;;;15.51;65.29;96407.75;4983062;28;20054;-64
2024/03/27 11:07:10;;;;;;;0.70;0.70;;;;;;;15.46;64.80;96315.34;4982820;28;20053;-64
2024/03/27 11:09:36;;;;;;;0.63;0.63;;;;;;;15.34;65.21;96299.91;4983750;28;20375;-65
2024/03/27 11:12:04;;;;;;;0.73;0.73;;;;;;;14.84;64.90;96243.97;4983485;28;20050;-64
2024/03/27 11:14:36;;;;;;;0.70;0.70;;;;;;;16.23;63.48;96350.47;4983126;28;20054;-66
2024/03/27 11:17:03;;;;;;;0.70;0.70;;;;;;;15.17;64.45;96197.72;4966418;28;20046;-67
2024/03/27 11:19:40;;;;;;;0.70;0.70;;;;;;;15.54;63.24;96261.75;4982739;28;20069;-69
2024/03/27 11:22:14;;;;;;;0.70;0.70;;;;;;;16.16;62.89;96340.19;4982661;28;20054;-66
2024/03/27 11:24:44;;;;;;;0.70;0.70;;;;;;;16.51;62.45;96348.03;4967237;28;20125;-66
2024/03/27 11:27:11;;;;;;;0.80;0.80;;;;;;;16.86;61.57;96343.00;4982749;28;20449;-67
2024/03/27 11:29:38;;;;;;;0.70;0.70;;;;;;;16.91;60.50;96336.91;4983041;28;20054;-64